createdAt,value
2022-12-15T00:00:48.242Z,99711.38
2022-12-15T00:03:47.869Z,99707.81
2022-12-15T00:06:35.309Z,99702.44
2022-12-15T00:09:27.656Z,99701.53
2022-12-15T00:12:17.835Z,99688.56
2022-12-15T00:15:04.547Z,99686.22
2022-12-15T00:17:51.368Z,99684.78
2022-12-15T00:20:38.706Z,99684.00
2022-12-15T00:23:28.658Z,99675.59
2022-12-15T00:26:15.722Z,99674.06
2022-12-15T00:29:03.433Z,99677.09
2022-12-15T00:31:49.854Z,99680.78
2022-12-15T00:34:38.501Z,99680.25
2022-12-15T00:37:25.131Z,99670.91
2022-12-15T00:39:59.048Z,99674.19
2022-12-15T00:42:29.121Z,99678.28
2022-12-15T00:44:57.424Z,99682.41
2022-12-15T00:47:26.351Z,99690.75
2022-12-15T00:50:13.147Z,99695.22
2022-12-15T00:53:00.326Z,99698.31
2022-12-15T00:55:47.053Z,99688.34
2022-12-15T00:58:33.755Z,99699.13
2022-12-15T01:01:29.884Z,99705.44
2022-12-15T01:04:16.580Z,99704.06
2022-12-15T01:07:03.676Z,99713.28
2022-12-15T01:09:50.044Z,99714.81
2022-12-15T01:12:36.914Z,99704.97
2022-12-15T01:15:24.045Z,99703.44
2022-12-15T01:18:11.848Z,99699.44
2022-12-15T01:20:39.917Z,99709.72
2022-12-15T01:23:09.286Z,99725.53
2022-12-15T01:25:39.851Z,99726.34
2022-12-15T01:28:08.294Z,99724.28
2022-12-15T01:30:36.225Z,99724.19
2022-12-15T01:33:04.540Z,99717.31
2022-12-15T01:35:32.494Z,99722.72
2022-12-15T01:38:01.326Z,99721.44
2022-12-15T01:40:47.272Z,99716.78
2022-12-15T01:43:24.930Z,99721.59
2022-12-15T01:45:57.576Z,99726.66
2022-12-15T01:48:47.243Z,99723.31
2022-12-15T01:51:31.232Z,99728.59
2022-12-15T01:54:08.763Z,99731.09
2022-12-15T01:56:43.807Z,99732.84
2022-12-15T01:59:17.978Z,99731.22
2022-12-15T02:01:49.884Z,99727.41
2022-12-15T02:04:22.213Z,99730.84
2022-12-15T02:06:50.867Z,99734.13
2022-12-15T02:09:21.095Z,99740.00
2022-12-15T02:11:55.005Z,99737.38
2022-12-15T02:14:51.725Z,99733.94
2022-12-15T02:17:39.624Z,99746.78
2022-12-15T02:20:15.041Z,99736.91
2022-12-15T02:23:17.256Z,99746.22
2022-12-15T02:25:56.519Z,99747.84
2022-12-15T02:28:50.664Z,99751.69
2022-12-15T02:31:45.515Z,99742.72
2022-12-15T02:34:42.508Z,99735.00
2022-12-15T02:37:16.945Z,99740.31
2022-12-15T02:39:45.394Z,99733.38
2022-12-15T02:42:14.363Z,99741.09
2022-12-15T02:44:51.677Z,99744.72
2022-12-15T02:47:29.064Z,99742.28
2022-12-15T02:50:21.013Z,99744.03
2022-12-15T02:53:18.254Z,99748.22
2022-12-15T02:56:05.935Z,99737.34
2022-12-15T02:58:46.367Z,99721.81
2022-12-15T03:01:41.272Z,99715.34
2022-12-15T03:04:12.417Z,99717.72
2022-12-15T03:06:40.315Z,99708.19
2022-12-15T03:09:08.720Z,99715.16
2022-12-15T03:11:37.492Z,99702.03
2022-12-15T03:14:05.883Z,99700.78
2022-12-15T03:16:33.958Z,99723.00
2022-12-15T03:19:03.173Z,99732.50
2022-12-15T03:21:31.573Z,99741.97
2022-12-15T03:23:59.905Z,99754.41
2022-12-15T03:26:27.864Z,99746.84
2022-12-15T03:28:56.212Z,99752.34
2022-12-15T03:31:24.431Z,99758.34
2022-12-15T03:33:54.202Z,99741.94
2022-12-15T03:36:25.673Z,99734.78
2022-12-15T03:38:54.064Z,99741.19
2022-12-15T03:41:22.103Z,99745.41
2022-12-15T03:43:50.615Z,99746.28
2022-12-15T03:46:18.644Z,99747.75
2022-12-15T03:48:47.504Z,99749.88
2022-12-15T03:51:15.583Z,99768.88
2022-12-15T03:53:43.837Z,99774.56
2022-12-15T03:56:11.833Z,99782.06
2022-12-15T03:58:40.165Z,99777.56
2022-12-15T04:01:27.845Z,99778.28
2022-12-15T04:04:00.875Z,99788.47
2022-12-15T04:06:30.863Z,99778.28
2022-12-15T04:08:59.258Z,99783.19
2022-12-15T04:11:27.387Z,99784.72
2022-12-15T04:13:55.654Z,99797.94
2022-12-15T04:16:23.683Z,99805.69
2022-12-15T04:19:12.136Z,99804.13
2022-12-15T04:21:40.193Z,99808.13
2022-12-15T04:24:27.140Z,99813.41
2022-12-15T04:27:13.848Z,99805.66
2022-12-15T04:30:00.736Z,99798.69
2022-12-15T04:32:50.068Z,99810.63
2022-12-15T04:35:38.663Z,99816.72
2022-12-15T04:38:25.390Z,99816.84
2022-12-15T04:41:13.554Z,99821.16
2022-12-15T04:44:00.268Z,99834.03
2022-12-15T04:46:47.051Z,99832.72
2022-12-15T04:49:33.509Z,99846.66
2022-12-15T04:52:20.730Z,99838.44
2022-12-15T04:55:07.288Z,99835.19
2022-12-15T04:57:54.594Z,99849.38
2022-12-15T05:00:41.439Z,99852.13
2022-12-15T05:03:29.591Z,99851.81
2022-12-15T05:06:17.262Z,99849.38
2022-12-15T05:09:04.042Z,99841.84
2022-12-15T05:11:50.840Z,99838.19
2022-12-15T05:14:37.499Z,99837.44
2022-12-15T05:17:24.355Z,99835.84
2022-12-15T05:20:11.528Z,99837.91
2022-12-15T05:22:58.040Z,99833.13
2022-12-15T05:25:46.079Z,99833.41
2022-12-15T05:28:32.750Z,99837.31
2022-12-15T05:31:19.533Z,99844.09
2022-12-15T05:33:47.791Z,99840.84
2022-12-15T05:36:17.220Z,99843.91
2022-12-15T05:38:47.780Z,99847.78
2022-12-15T05:41:21.180Z,99861.72
2022-12-15T05:43:49.402Z,99868.00
2022-12-15T05:46:20.021Z,99879.44
2022-12-15T05:48:48.302Z,99882.31
2022-12-15T05:51:16.640Z,99889.03
2022-12-15T05:53:44.771Z,99879.69
2022-12-15T05:56:15.702Z,99885.97
2022-12-15T05:58:45.585Z,99879.94
2022-12-15T06:01:17.902Z,99882.88
2022-12-15T06:03:46.175Z,99884.06
2022-12-15T06:06:17.178Z,99886.31
2022-12-15T06:08:45.433Z,99888.97
2022-12-15T06:11:17.530Z,99884.28
2022-12-15T06:13:47.409Z,99890.06
2022-12-15T06:16:24.489Z,99894.38
2022-12-15T06:18:58.030Z,99908.13
2022-12-15T06:21:28.146Z,99906.81
2022-12-15T06:23:57.308Z,99915.81
2022-12-15T06:26:40.749Z,99918.25
2022-12-15T06:29:11.086Z,99919.25
2022-12-15T06:31:40.998Z,99917.81
2022-12-15T06:34:14.090Z,99936.69
2022-12-15T06:36:42.789Z,99948.59
2022-12-15T06:39:13.709Z,99947.63
2022-12-15T06:41:44.107Z,99963.75
2022-12-15T06:44:16.486Z,99969.88
2022-12-15T06:46:46.816Z,99967.97
2022-12-15T06:49:15.667Z,99977.09
2022-12-15T06:51:45.248Z,99981.53
2022-12-15T06:54:13.473Z,99985.81
2022-12-15T06:56:42.648Z,99989.47
2022-12-15T06:59:12.093Z,99986.53
2022-12-15T07:01:42.053Z,99985.00
2022-12-15T07:04:11.638Z,99986.59
2022-12-15T07:06:40.664Z,99984.94
2022-12-15T07:09:13.751Z,99984.50
2022-12-15T07:11:42.147Z,99990.03
2022-12-15T07:14:10.668Z,99981.59
2022-12-15T07:16:39.406Z,99989.81
2022-12-15T07:19:11.985Z,99986.09
2022-12-15T07:21:41.657Z,99988.38
2022-12-15T07:24:13.299Z,100002.78
2022-12-15T07:26:42.835Z,99999.53
2022-12-15T07:29:12.143Z,99990.94
2022-12-15T07:31:41.842Z,100006.13
2022-12-15T07:34:09.997Z,100009.22
2022-12-15T07:36:38.928Z,100010.47
2022-12-15T07:39:07.008Z,100026.31
2022-12-15T07:41:35.879Z,100036.25
2022-12-15T07:44:04.410Z,100023.47
2022-12-15T07:46:34.235Z,100021.94
2022-12-15T07:49:02.359Z,100027.69
2022-12-15T07:51:30.772Z,100041.53
2022-12-15T07:53:59.000Z,100045.69
2022-12-15T07:56:28.877Z,100058.44
2022-12-15T07:58:57.125Z,100059.22
2022-12-15T08:01:25.663Z,100063.81
2022-12-15T08:03:53.953Z,100075.56
2022-12-15T08:06:22.900Z,100084.31
2022-12-15T08:08:51.676Z,100062.53
2022-12-15T08:11:23.346Z,100065.41
2022-12-15T08:14:13.296Z,100082.81
2022-12-15T08:16:40.378Z,100072.78
2022-12-15T08:19:12.456Z,100083.78
2022-12-15T08:21:42.286Z,100086.53
2022-12-15T08:24:10.630Z,100080.44
2022-12-15T08:26:41.328Z,100081.03
2022-12-15T08:32:02.013Z,100053.75
2022-12-15T08:34:30.442Z,100053.41
2022-12-15T08:36:58.765Z,100054.53
2022-12-15T08:39:26.874Z,100060.41
2022-12-15T08:41:56.645Z,100050.22
2022-12-15T08:44:24.685Z,100055.31
2022-12-15T08:46:54.699Z,100052.81
2022-12-15T08:49:22.794Z,100042.63
2022-12-15T08:51:52.546Z,100045.91
2022-12-15T08:54:21.796Z,100051.78
2022-12-15T08:56:50.435Z,100041.28
2022-12-15T08:59:19.685Z,100042.16
2022-12-15T09:01:48.601Z,100045.19
2022-12-15T09:04:17.751Z,100046.16
2022-12-15T09:06:50.359Z,100046.97
2022-12-15T09:09:19.358Z,100056.78
2022-12-15T09:11:48.668Z,100062.59
2022-12-15T09:14:21.587Z,100064.53
2022-12-15T09:16:54.101Z,100073.09
2022-12-15T09:19:22.438Z,100074.75
2022-12-15T09:21:50.956Z,100078.09
2022-12-15T09:24:28.692Z,100074.88
2022-12-15T09:27:01.325Z,100076.81
2022-12-15T09:29:29.497Z,100077.97
2022-12-15T09:31:59.907Z,100079.56
2022-12-15T09:34:28.317Z,100069.34
2022-12-15T09:36:57.224Z,100062.69
2022-12-15T09:39:25.399Z,100054.44
2022-12-15T09:41:58.915Z,100057.56
2022-12-15T09:44:29.895Z,100046.16
2022-12-15T09:47:20.520Z,100047.66
2022-12-15T09:49:49.176Z,100046.91
2022-12-15T09:52:22.917Z,100040.75
2022-12-15T09:54:51.674Z,100039.56
2022-12-15T09:57:40.202Z,100052.06
2022-12-15T10:00:22.767Z,100057.81
2022-12-15T10:03:22.869Z,100062.22
2022-12-15T10:06:16.573Z,100071.56
2022-12-15T10:08:54.598Z,100072.59
2022-12-15T10:12:02.792Z,100076.81
2022-12-15T10:15:05.807Z,100064.28
2022-12-15T10:17:57.086Z,100038.88
2022-12-15T10:20:27.988Z,100038.69
2022-12-15T10:23:12.848Z,100034.72
2022-12-15T10:25:48.038Z,100028.63
2022-12-15T10:28:38.260Z,100010.94
2022-12-15T10:31:25.763Z,100011.72
2022-12-15T10:34:02.076Z,100041.16
2022-12-15T10:36:30.568Z,100062.09
2022-12-15T10:38:58.697Z,100060.72
2022-12-15T10:41:32.987Z,100063.88
2022-12-15T10:44:02.917Z,100062.13
2022-12-15T10:46:32.622Z,100061.34
2022-12-15T10:49:25.297Z,100062.25
2022-12-15T10:51:57.669Z,100057.59
2022-12-15T10:54:30.986Z,100058.06
2022-12-15T10:57:03.219Z,100060.66
2022-12-15T10:59:33.103Z,100059.31
2022-12-15T11:02:34.758Z,100057.16
2022-12-15T11:05:18.307Z,100049.06
2022-12-15T11:07:55.146Z,100040.72
2022-12-15T11:10:50.068Z,100025.94
2022-12-15T11:13:22.796Z,100024.53
2022-12-15T11:15:53.360Z,100008.75
2022-12-15T11:18:43.367Z,100009.41
2022-12-15T11:21:17.224Z,100012.56
2022-12-15T11:23:57.358Z,100011.78
2022-12-15T11:26:41.497Z,100007.38
2022-12-15T11:29:24.354Z,100010.97
2022-12-15T11:31:57.951Z,100010.97
2022-12-15T11:34:46.010Z,100010.34
2022-12-15T11:37:36.317Z,100012.03
2022-12-15T11:40:27.818Z,100001.31
2022-12-15T11:43:17.546Z,99978.00
2022-12-15T11:46:21.121Z,99967.34
2022-12-15T11:48:58.717Z,99950.25
2022-12-15T11:51:33.217Z,99944.34
2022-12-15T11:54:19.948Z,99939.03
2022-12-15T11:56:49.113Z,99935.09
2022-12-15T11:59:43.857Z,99934.75
2022-12-15T12:02:30.925Z,99919.09
2022-12-15T12:05:47.100Z,99916.31
2022-12-15T12:08:47.506Z,99890.84
2022-12-15T12:11:26.938Z,99885.41
2022-12-15T12:14:20.262Z,99880.38
2022-12-15T12:17:09.386Z,99888.50
2022-12-15T12:19:41.204Z,99883.84
2022-12-15T12:22:24.709Z,99870.41
2022-12-15T12:25:02.874Z,99873.84
2022-12-15T12:27:40.903Z,99878.97
2022-12-15T12:30:16.499Z,99873.81
2022-12-15T12:32:44.705Z,99873.06
2022-12-15T12:35:38.934Z,99863.50
2022-12-15T12:38:13.972Z,99859.00
2022-12-15T12:41:10.496Z,99854.47
2022-12-15T12:43:51.843Z,99836.00
2022-12-15T12:46:34.711Z,99829.59
2022-12-15T12:49:26.878Z,99821.91
2022-12-15T12:51:59.692Z,99825.22
2022-12-15T12:55:11.134Z,99834.13
2022-12-15T12:57:45.492Z,99836.94
2022-12-15T13:00:25.169Z,99840.53
2022-12-15T13:02:55.504Z,99832.25
2022-12-15T13:05:35.786Z,99826.31
2022-12-15T13:08:05.311Z,99820.22
2022-12-15T13:10:36.544Z,99824.59
2022-12-15T13:13:36.756Z,99826.13
2022-12-15T13:16:27.143Z,99827.25
2022-12-15T13:19:02.339Z,99823.31
2022-12-15T13:21:45.192Z,99819.88
2022-12-15T13:24:25.021Z,99810.34
2022-12-15T13:26:53.233Z,99806.44
2022-12-15T13:29:23.982Z,99821.78
2022-12-15T13:31:53.495Z,99822.56
2022-12-15T13:34:24.872Z,99822.84
2022-12-15T13:39:56.083Z,99815.59
2022-12-15T13:42:45.426Z,99810.91
2022-12-15T13:45:33.297Z,99830.00
2022-12-15T13:48:01.784Z,99836.19
2022-12-15T13:50:58.019Z,99837.47
2022-12-15T13:53:28.104Z,99842.00
2022-12-15T13:56:11.616Z,99849.75
2022-12-15T13:58:54.222Z,99851.56
2022-12-15T14:01:31.790Z,99854.25
2022-12-15T14:04:06.452Z,99849.09
2022-12-15T14:06:44.571Z,99859.78
2022-12-15T14:09:16.998Z,99854.25
2022-12-15T14:11:55.012Z,99863.19
2022-12-15T14:14:28.570Z,99864.44
2022-12-15T14:17:01.226Z,99863.66
2022-12-15T14:19:44.140Z,99867.09
2022-12-15T14:22:30.517Z,99865.53
2022-12-15T14:25:13.487Z,99850.22
2022-12-15T14:27:42.291Z,99840.53
2022-12-15T14:30:23.347Z,99839.38
2022-12-15T14:33:07.155Z,99834.34
2022-12-15T14:35:49.597Z,99826.84
2022-12-15T14:38:24.520Z,99825.06
2022-12-15T14:40:56.847Z,99822.84
2022-12-15T14:43:34.319Z,99819.78
2022-12-15T14:46:15.284Z,99819.22
2022-12-15T14:48:56.929Z,99816.41
2022-12-15T14:51:28.832Z,99806.50
2022-12-15T14:53:57.456Z,99810.31
2022-12-15T14:56:31.365Z,99796.63
2022-12-15T14:59:06.213Z,99788.72
2022-12-15T15:01:42.238Z,99785.03
2022-12-15T15:03:13.113Z,99817.84
2022-12-15T15:04:31.693Z,99777.88
2022-12-15T15:07:02.552Z,99777.50
2022-12-15T15:09:38.752Z,99774.44
2022-12-15T15:12:17.946Z,99774.88
2022-12-15T15:14:53.727Z,99760.00
2022-12-15T15:17:25.167Z,99750.84
2022-12-15T15:20:03.077Z,99755.81
2022-12-15T15:22:46.011Z,99738.56
2022-12-15T15:25:39.987Z,99737.25
2022-12-15T15:28:14.311Z,99731.25
2022-12-15T15:30:59.561Z,99724.47
2022-12-15T15:33:28.352Z,99712.47
2022-12-15T15:35:59.403Z,99704.53
2022-12-15T15:38:41.825Z,99690.53
2022-12-15T15:41:29.983Z,99680.38
2022-12-15T15:44:00.888Z,99673.06
2022-12-15T15:46:33.584Z,99664.53
2022-12-15T15:49:08.838Z,99654.84
2022-12-15T15:51:38.633Z,99642.03
2022-12-15T15:54:12.813Z,99635.38
2022-12-15T15:56:42.018Z,99626.50
2022-12-15T15:59:16.880Z,99609.53
2022-12-15T16:01:52.946Z,99598.88
2022-12-15T16:04:21.160Z,99588.28
2022-12-15T16:06:51.272Z,99574.53
2022-12-15T16:09:19.548Z,99569.59
2022-12-15T16:11:48.273Z,99577.84
2022-12-15T16:14:18.295Z,99575.94
2022-12-15T16:16:47.005Z,99579.84
2022-12-15T16:19:15.183Z,99582.59
2022-12-15T16:21:43.969Z,99581.81
2022-12-15T16:24:18.055Z,99575.34
2022-12-15T16:26:51.185Z,99573.81
2022-12-15T16:29:21.590Z,99566.88
2022-12-15T16:31:51.437Z,99559.78
2022-12-15T16:39:04.235Z,99548.66
2022-12-15T16:41:33.428Z,99525.81
2022-12-15T16:44:01.511Z,99526.47
2022-12-15T16:46:31.370Z,99529.00
2022-12-15T16:48:59.695Z,99512.94
2022-12-15T16:56:09.784Z,99511.03
2022-12-15T16:58:38.287Z,99512.66
2022-12-15T17:01:06.219Z,99503.69
2022-12-15T17:03:34.543Z,99510.53
2022-12-15T17:06:06.634Z,99505.44
2022-12-15T17:08:45.263Z,99491.22
2022-12-15T17:11:21.475Z,99487.75
2022-12-15T17:13:52.314Z,99469.78
2022-12-15T17:16:22.951Z,99455.91
2022-12-15T17:18:51.783Z,99470.88
2022-12-15T17:21:24.055Z,99492.63
2022-12-15T17:23:57.137Z,99507.56
2022-12-15T17:26:29.907Z,99496.69
2022-12-15T17:29:08.271Z,99499.88
2022-12-15T17:31:36.538Z,99499.72
2022-12-15T17:34:32.304Z,99492.53
2022-12-15T17:37:03.595Z,99493.22
2022-12-15T17:39:34.878Z,99491.19
2022-12-15T17:42:03.563Z,99499.53
2022-12-15T17:44:38.185Z,99513.19
2022-12-15T17:47:08.545Z,99514.56
2022-12-15T17:49:38.290Z,99529.66
2022-12-15T17:52:28.807Z,99530.81
2022-12-15T17:54:57.672Z,99536.44
2022-12-15T17:57:25.802Z,99548.91
2022-12-15T17:59:54.188Z,99541.84
2022-12-15T18:02:22.288Z,99534.50
2022-12-15T18:05:05.390Z,99538.81
2022-12-15T18:07:33.596Z,99537.44
2022-12-15T18:10:01.961Z,99539.91
2022-12-15T18:12:30.211Z,99544.47
2022-12-15T18:14:58.824Z,99543.50
2022-12-15T18:17:28.727Z,99549.59
2022-12-15T18:19:56.624Z,99539.75
2022-12-15T18:22:24.876Z,99537.63
2022-12-15T18:24:54.377Z,99538.44
2022-12-15T18:27:28.163Z,99531.31
2022-12-15T18:29:59.452Z,99524.38
2022-12-15T18:32:30.169Z,99515.34
2022-12-15T18:34:58.655Z,99508.34
2022-12-15T18:37:30.260Z,99491.78
2022-12-15T18:40:04.230Z,99477.91
2022-12-15T18:42:33.295Z,99470.59
2022-12-15T18:45:02.675Z,99456.84
2022-12-15T18:47:32.031Z,99445.66
2022-12-15T18:49:59.833Z,99447.97
2022-12-15T18:52:34.461Z,99444.06
2022-12-15T18:55:02.977Z,99445.66
2022-12-15T18:57:34.071Z,99440.19
2022-12-15T19:00:26.316Z,99433.31
2022-12-15T19:02:57.295Z,99432.06
2022-12-15T19:05:28.982Z,99426.13
2022-12-15T19:08:27.675Z,99418.19
2022-12-15T19:10:58.205Z,99403.84
2022-12-15T19:13:31.749Z,99407.88
2022-12-15T19:16:01.230Z,99399.63
2022-12-15T19:18:47.762Z,99395.41
2022-12-15T19:21:40.443Z,99395.38
2022-12-15T19:24:19.911Z,99397.13
2022-12-15T19:26:49.592Z,99400.53
2022-12-15T19:29:21.520Z,99392.56
2022-12-15T19:31:49.922Z,99403.53
2022-12-15T19:34:18.916Z,99393.38
2022-12-15T19:36:47.288Z,99397.28
2022-12-15T19:39:23.515Z,99401.03
2022-12-15T19:41:51.619Z,99395.56
2022-12-15T19:44:20.219Z,99400.38
2022-12-15T19:46:48.170Z,99409.28
2022-12-15T19:49:17.643Z,99412.03
2022-12-15T19:51:46.065Z,99423.38
2022-12-15T19:54:19.587Z,99430.19
2022-12-15T19:56:48.130Z,99425.25
2022-12-15T19:59:34.566Z,99408.03
2022-12-15T20:02:02.726Z,99364.34
2022-12-15T20:04:32.415Z,99338.81
2022-12-15T20:07:04.415Z,99333.22
2022-12-15T20:09:33.656Z,99316.69
2022-12-15T20:12:01.495Z,99312.94
2022-12-15T20:14:29.678Z,99304.94
2022-12-15T20:16:58.484Z,99289.81
2022-12-15T20:19:29.259Z,99275.28
2022-12-15T20:21:57.125Z,99271.25
2022-12-15T20:24:26.038Z,99272.03
2022-12-15T20:26:54.056Z,99295.84
2022-12-15T20:29:28.460Z,99294.78
2022-12-15T20:31:58.023Z,99309.16
2022-12-15T20:34:26.305Z,99309.06
2022-12-15T20:36:54.214Z,99302.50
2022-12-15T20:39:27.975Z,99316.03
2022-12-15T20:41:57.170Z,99337.63
2022-12-15T20:44:25.676Z,99350.78
2022-12-15T20:46:54.677Z,99352.88
2022-12-15T20:49:24.430Z,99347.09
2022-12-15T20:51:52.725Z,99335.41
2022-12-15T20:54:22.842Z,99329.69
2022-12-15T20:56:51.353Z,99331.78
2022-12-15T20:59:21.518Z,99344.50
2022-12-15T21:01:50.718Z,99356.25
2022-12-15T21:04:26.920Z,99372.38
2022-12-15T21:06:57.010Z,99377.59
2022-12-15T21:09:25.967Z,99373.63
2022-12-15T21:11:55.391Z,99368.03
2022-12-15T21:14:24.697Z,99374.41
2022-12-15T21:16:52.904Z,99385.03
2022-12-15T21:19:22.651Z,99392.03
2022-12-15T21:24:42.659Z,99397.56
2022-12-15T21:27:14.888Z,99396.00
2022-12-15T21:29:47.358Z,99411.91
2022-12-15T21:32:18.463Z,99417.69
2022-12-15T21:34:46.895Z,99417.88
2022-12-15T21:37:30.549Z,99406.97
2022-12-15T21:40:00.458Z,99394.00
2022-12-15T21:42:28.668Z,99389.94
2022-12-15T21:44:58.608Z,99387.91
2022-12-15T21:47:52.339Z,99374.00
2022-12-15T21:50:23.308Z,99382.91
2022-12-15T21:52:51.594Z,99380.41
2022-12-15T21:55:23.780Z,99373.22
2022-12-15T21:57:51.811Z,99370.56
2022-12-15T22:00:21.422Z,99360.28
2022-12-15T22:02:51.969Z,99377.44
2022-12-15T22:05:24.633Z,99379.31
2022-12-15T22:07:52.688Z,99362.63
2022-12-15T22:10:21.128Z,99356.56
2022-12-15T22:12:59.317Z,99334.84
2022-12-15T22:15:29.409Z,99323.25
2022-12-15T22:17:57.437Z,99317.84
2022-12-15T22:20:26.047Z,99325.56
2022-12-15T22:22:53.970Z,99324.47
2022-12-15T22:25:26.174Z,99322.97
2022-12-15T22:27:54.768Z,99319.69
2022-12-15T22:30:26.337Z,99326.44
2022-12-15T22:32:54.629Z,99329.75
2022-12-15T22:35:26.192Z,99322.59
2022-12-15T22:37:55.241Z,99331.78
2022-12-15T22:40:24.478Z,99323.88
2022-12-15T22:42:58.378Z,99334.00
2022-12-15T22:45:27.746Z,99336.50
2022-12-15T22:47:55.660Z,99323.69
2022-12-15T22:50:26.314Z,99318.25
2022-12-15T22:52:55.102Z,99313.28
2022-12-15T22:55:24.737Z,99321.69
2022-12-15T22:58:07.212Z,99315.91
2022-12-15T23:00:36.151Z,99326.06
2022-12-15T23:03:07.949Z,99327.28
2022-12-15T23:05:42.101Z,99322.44
2022-12-15T23:08:10.125Z,99329.63
2022-12-15T23:10:56.817Z,99336.94
2022-12-15T23:13:24.730Z,99331.66
2022-12-15T23:16:11.845Z,99335.72
2022-12-15T23:18:39.787Z,99346.63
2022-12-15T23:21:09.707Z,99332.56
2022-12-15T23:23:37.898Z,99331.81
2022-12-15T23:26:06.496Z,99329.09
2022-12-15T23:28:34.528Z,99346.41
2022-12-15T23:31:03.385Z,99351.59
2022-12-15T23:33:31.728Z,99360.16
2022-12-15T23:36:01.477Z,99356.69
2022-12-15T23:38:29.915Z,99340.25
2022-12-15T23:40:59.897Z,99331.34
2022-12-15T23:43:30.937Z,99334.44
2022-12-15T23:46:05.717Z,99341.88
2022-12-15T23:48:38.836Z,99327.56
2022-12-15T23:51:12.066Z,99312.91
2022-12-15T23:53:41.184Z,99318.16
2022-12-15T23:56:14.111Z,99305.06
2022-12-15T23:58:46.695Z,99300.41
